Time;durP1;ratioP1;P1;durP2;ratioP2;P2;SDS_P1;SDS_P2;PMS_P1;PMS_P2;Temp;Humidity;BMP_temperature;BMP_pressure;BME280_temperature;BME280_humidity;BME280_pressure;Samples;Min_cycle;Max_cycle;Signal;HPM_P1;HPM_P2
2024/02/10 00:01:09;;;;;;;17.98;7.53;;;;;;;9.17;73.27;92370.59;5070749;28;20619;-75
2024/02/10 00:03:36;;;;;;;15.77;8.63;;;;;;;9.13;73.72;92381.50;5074447;28;20519;-75
2024/02/10 00:06:05;;;;;;;20.45;8.43;;;;;;;9.12;73.41;92382.50;5081731;28;20152;-75
2024/02/10 00:08:31;;;;;;;15.27;8.13;;;;;;;9.01;74.21;92369.47;5069697;28;20051;-75
2024/02/10 00:11:00;;;;;;;23.65;10.65;;;;;;;9.00;74.21;92369.69;5072050;28;20511;-74
2024/02/10 00:13:33;;;;;;;24.73;10.25;;;;;;;9.04;73.97;92370.81;5072505;28;20044;-75
2024/02/10 00:16:01;;;;;;;18.40;10.05;;;;;;;9.07;74.43;92381.38;5075865;28;20047;-75
2024/02/10 00:18:31;;;;;;;20.02;8.98;;;;;;;9.02;74.55;92388.94;5068956;28;20048;-74
2024/02/10 00:20:58;;;;;;;15.75;7.93;;;;;;;9.00;74.98;92393.53;5071681;28;20891;-74
2024/02/10 00:23:27;;;;;;;17.92;7.95;;;;;;;8.98;75.40;92380.13;5072603;28;20122;-74
2024/02/10 00:25:53;;;;;;;17.98;8.60;;;;;;;8.90;75.74;92372.78;5081278;28;20058;-75
2024/02/10 00:28:20;;;;;;;22.67;11.00;;;;;;;8.92;75.50;92375.91;5069189;28;20497;-75
2024/02/10 00:30:49;;;;;;;21.02;10.65;;;;;;;8.87;75.09;92386.81;5071549;28;20041;-75
2024/02/10 00:33:16;;;;;;;34.38;18.25;;;;;;;8.64;76.59;92379.84;5071307;28;20056;-75
2024/02/10 00:35:44;;;;;;;25.88;13.23;;;;;;;8.48;77.40;92378.66;5075605;28;20138;-74
2024/02/10 00:38:20;;;;;;;20.55;11.27;;;;;;;8.40;78.27;92377.16;5077216;28;20076;-75
2024/02/10 00:40:47;;;;;;;18.15;7.68;;;;;;;8.31;78.60;92371.56;5070112;28;20071;-75
2024/02/10 00:43:14;;;;;;;15.02;7.45;;;;;;;8.11;79.93;92369.25;5070839;28;20036;-75
2024/02/10 00:45:46;;;;;;;15.57;9.43;;;;;;;8.09;80.73;92368.66;5073529;28;20063;-75
2024/02/10 00:48:14;;;;;;;14.48;8.07;;;;;;;8.26;81.12;92374.78;5069595;28;20040;-75
2024/02/10 00:50:41;;;;;;;18.33;6.95;;;;;;;8.16;80.52;92366.84;5078756;28;20048;-75
2024/02/10 00:53:08;;;;;;;15.55;7.68;;;;;;;8.07;82.34;92368.91;5072887;28;20080;-75
2024/02/10 00:55:35;;;;;;;15.98;8.52;;;;;;;8.22;81.65;92370.28;5068459;28;20059;-75
2024/02/10 00:58:04;;;;;;;14.20;7.07;;;;;;;8.08;83.15;92356.88;5069587;28;20412;-75
2024/02/10 01:00:31;;;;;;;16.27;7.78;;;;;;;7.80;83.29;92335.16;5069777;28;20067;-74
2024/02/10 01:02:58;;;;;;;13.55;7.50;;;;;;;7.75;84.32;92351.94;5070581;28;20055;-74
2024/02/10 01:05:27;;;;;;;15.73;7.03;;;;;;;7.72;85.12;92341.34;5078992;28;20044;-75
2024/02/10 01:07:55;;;;;;;12.45;6.65;;;;;;;7.55;85.90;92326.56;5068054;28;20049;-75
2024/02/10 01:10:22;;;;;;;20.00;7.60;;;;;;;7.61;86.32;92340.28;5070640;28;20062;-75
2024/02/10 01:12:49;;;;;;;17.05;7.57;;;;;;;7.53;86.77;92335.44;5074347;28;20075;-75
2024/02/10 01:15:17;;;;;;;15.13;6.10;;;;;;;7.31;87.63;92300.88;5071155;28;20102;-75
2024/02/10 01:17:46;;;;;;;12.02;6.43;;;;;;;7.42;87.34;92321.63;5075341;28;20055;-75
2024/02/10 01:20:16;;;;;;;12.57;6.78;;;;;;;7.41;87.80;92317.50;5069674;28;20053;-75
2024/02/10 01:22:45;;;;;;;18.55;7.55;;;;;;;7.44;87.77;92317.84;5073952;28;20048;-75
2024/02/10 01:25:12;;;;;;;18.83;9.45;;;;;;;7.37;88.23;92327.38;5075425;28;20040;-75
2024/02/10 01:27:39;;;;;;;15.98;7.53;;;;;;;7.68;87.45;92335.88;5068680;28;20159;-74
2024/02/10 01:30:07;;;;;;;18.65;7.78;;;;;;;7.90;85.67;92345.69;5078081;28;20070;-75
2024/02/10 01:32:35;;;;;;;17.58;7.68;;;;;;;7.68;85.80;92341.00;5070135;28;20037;-75
2024/02/10 01:35:03;;;;;;;19.40;7.65;;;;;;;7.60;86.61;92348.97;5068274;28;20147;-75
2024/02/10 01:37:31;;;;;;;15.32;7.40;;;;;;;7.57;87.38;92344.25;5070793;28;20040;-75
2024/02/10 01:40:01;;;;;;;15.68;7.30;;;;;;;7.55;87.29;92347.03;5070887;28;20048;-75
2024/02/10 01:42:37;;;;;;;20.58;9.82;;;;;;;7.51;87.33;92360.44;5069314;28;20045;-75
2024/02/10 01:45:07;;;;;;;16.50;7.38;;;;;;;7.46;87.89;92361.84;5076494;28;20144;-75
2024/02/10 01:47:36;;;;;;;17.05;7.13;;;;;;;7.43;87.56;92358.94;5076300;28;20048;-75
2024/02/10 01:50:03;;;;;;;16.45;7.75;;;;;;;7.66;87.16;92354.97;5071347;28;20048;-76
2024/02/10 01:52:30;;;;;;;14.07;7.90;;;;;;;7.64;86.89;92359.53;5070312;28;20051;-75
2024/02/10 01:54:59;;;;;;;17.23;9.43;;;;;;;7.55;86.90;92359.03;5068057;28;20049;-75
2024/02/10 01:57:27;;;;;;;16.75;8.43;;;;;;;7.44;87.43;92345.97;5070262;28;20044;-74
2024/02/10 01:59:54;;;;;;;17.00;8.13;;;;;;;7.39;88.57;92333.03;5072805;28;20044;-75
2024/02/10 02:02:22;;;;;;;21.02;10.75;;;;;;;7.55;87.06;92287.47;5067977;28;20518;-73
2024/02/10 02:04:49;;;;;;;17.05;9.82;;;;;;;8.01;85.32;92323.75;5072975;28;20036;-75
2024/02/10 02:07:16;;;;;;;20.83;9.65;;;;;;;7.73;85.07;92327.59;5070196;28;20119;-74
2024/02/10 02:09:44;;;;;;;19.02;10.38;;;;;;;7.89;85.81;92313.44;5067641;28;20420;-75
2024/02/10 02:12:12;;;;;;;25.90;10.20;;;;;;;7.60;85.65;92306.28;5071433;28;20114;-76
2024/02/10 02:14:43;;;;;;;22.02;9.82;;;;;;;7.52;87.35;92304.03;5067861;28;20079;-76
2024/02/10 02:17:10;;;;;;;23.80;9.77;;;;;;;7.46;86.77;92282.63;5072573;28;20118;-76
2024/02/10 02:19:42;;;;;;;23.52;10.10;;;;;;;7.45;87.42;92288.75;5071755;28;20044;-76
2024/02/10 02:22:09;;;;;;;24.90;11.23;;;;;;;7.54;86.88;92304.56;5070309;28;20052;-76
2024/02/10 02:24:38;;;;;;;28.42;12.15;;;;;;;7.62;86.80;92308.63;5070914;28;20052;-74
2024/02/10 02:27:06;;;;;;;24.90;11.02;;;;;;;7.62;86.75;92303.50;5067898;28;20063;-75
2024/02/10 02:29:33;;;;;;;13.02;7.53;;;;;;;7.35;87.57;92294.34;5076168;28;20048;-75
2024/02/10 02:32:01;;;;;;;15.63;7.78;;;;;;;7.69;88.13;92298.34;5074658;28;20062;-74
2024/02/10 02:34:28;;;;;;;18.45;8.63;;;;;;;7.84;86.12;92306.44;5068379;28;20048;-74
2024/02/10 02:36:55;;;;;;;19.20;10.77;;;;;;;7.94;85.57;92318.69;5069507;28;20052;-75
2024/02/10 02:39:22;;;;;;;16.15;8.55;;;;;;;7.97;85.53;92322.59;5079997;28;20052;-75
2024/02/10 02:41:50;;;;;;;16.15;7.90;;;;;;;7.92;85.34;92313.00;5068605;28;20047;-74
2024/02/10 02:44:17;;;;;;;13.32;7.68;;;;;;;7.94;85.48;92315.34;5070432;28;20050;-74
2024/02/10 02:46:44;;;;;;;13.85;7.35;;;;;;;7.93;85.80;92316.34;5077607;28;20160;-75
2024/02/10 02:49:14;;;;;;;13.25;6.40;;;;;;;7.92;85.87;92325.78;5067455;28;20045;-75
2024/02/10 02:51:41;;;;;;;11.65;7.00;;;;;;;7.84;86.25;92326.09;5077191;28;20594;-74
2024/02/10 02:54:08;;;;;;;16.73;7.80;;;;;;;7.93;86.15;92331.69;5068695;28;20047;-74
2024/02/10 02:56:35;;;;;;;15.15;7.60;;;;;;;7.96;86.31;92324.38;5069575;28;20044;-74
2024/02/10 02:59:05;;;;;;;13.00;8.35;;;;;;;8.06;85.76;92326.41;5075797;28;20059;-74
2024/02/10 03:01:33;;;;;;;14.55;8.13;;;;;;;8.05;85.53;92321.53;5067367;28;20049;-75
2024/02/10 03:04:00;;;;;;;11.80;8.13;;;;;;;7.94;85.68;92313.56;5067492;28;20132;-75
2024/02/10 03:06:27;;;;;;;12.45;7.75;;;;;;;7.96;86.21;92308.25;5071279;28;20048;-76
2024/02/10 03:08:54;;;;;;;16.27;8.07;;;;;;;7.99;86.60;92288.13;5068127;28;20062;-75
2024/02/10 03:11:21;;;;;;;13.32;7.97;;;;;;;8.02;86.22;92292.81;5071226;28;20053;-76
2024/02/10 03:13:49;;;;;;;11.77;7.55;;;;;;;8.14;86.09;92297.97;5071982;28;20080;-76
2024/02/10 03:16:18;;;;;;;11.40;7.22;;;;;;;8.18;85.56;92287.31;5071310;28;20134;-75
2024/02/10 03:18:46;;;;;;;12.38;7.07;;;;;;;8.32;84.91;92290.50;5077349;28;20083;-76
2024/02/10 03:21:13;;;;;;;11.23;6.97;;;;;;;8.38;84.48;92292.94;5071200;28;20048;-75
2024/02/10 03:23:41;;;;;;;13.65;8.73;;;;;;;8.36;84.30;92292.38;5071248;28;20139;-76
2024/02/10 03:26:08;;;;;;;13.98;7.50;;;;;;;8.44;84.05;92293.84;5072267;28;20037;-76
2024/02/10 03:28:35;;;;;;;15.30;8.93;;;;;;;8.38;84.09;92310.84;5074067;28;20052;-76
2024/02/10 03:31:02;;;;;;;12.93;7.38;;;;;;;8.47;83.71;92319.00;5080405;28;20044;-76
2024/02/10 03:33:32;;;;;;;14.45;7.60;;;;;;;8.49;83.93;92298.31;5076555;28;20046;-76
2024/02/10 03:35:59;;;;;;;14.38;7.53;;;;;;;8.41;83.60;92309.63;5070057;28;20053;-75
2024/02/10 03:38:26;;;;;;;13.40;8.00;;;;;;;8.50;83.53;92344.16;5077831;28;20048;-75
2024/02/10 03:40:53;;;;;;;12.48;7.10;;;;;;;8.43;83.98;92340.91;5076696;28;20044;-74
2024/02/10 03:43:26;;;;;;;13.07;7.28;;;;;;;8.49;84.51;92336.69;5083239;28;20159;-73
2024/02/10 03:45:53;;;;;;;10.20;6.82;;;;;;;8.45;84.70;92338.13;5071437;28;20648;-73
2024/02/10 03:48:20;;;;;;;12.15;7.18;;;;;;;8.44;84.66;92337.34;5071118;28;20077;-74
2024/02/10 03:50:49;;;;;;;12.30;6.47;;;;;;;8.50;84.57;92348.50;5072406;28;20519;-73
2024/02/10 03:53:17;;;;;;;12.77;6.38;;;;;;;8.57;84.02;92340.75;5074304;28;20062;-74
2024/02/10 03:55:44;;;;;;;13.90;5.97;;;;;;;8.61;83.71;92347.00;5069710;28;20445;-74
2024/02/10 03:58:16;;;;;;;12.20;7.03;;;;;;;8.71;83.19;92346.47;5079091;28;20044;-74
2024/02/10 04:00:44;;;;;;;14.93;7.93;;;;;;;8.77;82.71;92336.13;5077299;28;20504;-75
2024/02/10 04:03:12;;;;;;;14.75;8.43;;;;;;;8.65;81.94;92307.16;5074973;28;20101;-75
2024/02/10 04:05:39;;;;;;;14.57;7.63;;;;;;;8.78;81.87;92324.88;5071054;28;20054;-75
2024/02/10 04:08:09;;;;;;;15.68;7.50;;;;;;;8.73;81.86;92308.63;5070055;28;20053;-75
2024/02/10 04:10:36;;;;;;;14.55;6.65;;;;;;;8.85;81.45;92312.00;5075578;28;20491;-75
2024/02/10 04:13:09;;;;;;;13.00;7.60;;;;;;;8.97;80.83;92301.75;5080260;28;20465;-75
2024/02/10 04:15:36;;;;;;;13.57;7.57;;;;;;;8.94;79.97;92281.72;5072934;28;20055;-75
2024/02/10 04:18:05;;;;;;;14.00;7.43;;;;;;;9.08;79.60;92285.59;5081216;28;20144;-75
2024/02/10 04:20:32;;;;;;;14.10;7.43;;;;;;;9.14;78.45;92283.94;5070219;28;20782;-76
2024/02/10 04:23:03;;;;;;;11.50;6.30;;;;;;;9.19;77.70;92276.38;5072854;28;20501;-75
2024/02/10 04:25:33;;;;;;;10.73;5.65;;;;;;;9.20;77.27;92266.88;5073255;28;20052;-75
2024/02/10 04:28:02;;;;;;;12.15;5.57;;;;;;;9.32;76.41;92265.09;5067843;28;20738;-75
2024/02/10 04:30:30;;;;;;;8.05;5.60;;;;;;;9.37;75.86;92264.41;5062370;28;20098;-75
2024/02/10 04:32:57;;;;;;;13.02;6.82;;;;;;;9.44;75.11;92262.50;5065508;28;20063;-76
2024/02/10 04:35:26;;;;;;;12.23;6.80;;;;;;;9.68;74.61;92282.19;5072624;28;20036;-75
2024/02/10 04:37:53;;;;;;;9.70;5.70;;;;;;;9.77;74.55;92288.53;5071323;28;20523;-76
2024/02/10 04:40:23;;;;;;;8.52;5.50;;;;;;;9.75;74.28;92299.03;5070705;28;20481;-76
2024/02/10 04:42:53;;;;;;;12.45;6.30;;;;;;;9.73;74.12;92293.31;5071783;28;20835;-76
2024/02/10 04:45:25;;;;;;;11.35;5.88;;;;;;;9.75;74.18;92291.31;5074163;28;20449;-76
2024/02/10 04:47:52;;;;;;;8.55;5.50;;;;;;;9.62;74.35;92281.31;5072659;28;20052;-76
2024/02/10 04:50:20;;;;;;;9.60;6.03;;;;;;;9.67;74.18;92278.09;5072527;28;20059;-75
2024/02/10 04:52:47;;;;;;;11.23;6.60;;;;;;;9.67;73.87;92270.38;5080875;28;20048;-74
2024/02/10 04:55:15;;;;;;;11.15;6.57;;;;;;;9.61;73.47;92270.28;5069355;28;20056;-75
2024/02/10 04:57:42;;;;;;;9.93;6.35;;;;;;;9.59;72.94;92264.59;5070500;28;20059;-75
2024/02/10 05:00:15;;;;;;;10.70;5.32;;;;;;;9.73;72.49;92274.59;5080467;28;20062;-75
2024/02/10 05:02:43;;;;;;;9.82;4.95;;;;;;;9.65;72.80;92270.59;5069354;28;20555;-75
2024/02/10 05:05:11;;;;;;;9.90;4.80;;;;;;;9.55;72.40;92253.25;5068688;28;20044;-74
2024/02/10 05:07:42;;;;;;;10.02;5.00;;;;;;;9.45;71.92;92227.41;5071042;28;20044;-75
2024/02/10 05:10:11;;;;;;;10.18;4.85;;;;;;;9.52;72.30;92261.38;5068538;28;20052;-74
2024/02/10 05:12:39;;;;;;;7.45;4.53;;;;;;;9.53;71.67;92269.84;5076694;28;20055;-75
2024/02/10 05:15:09;;;;;;;11.60;5.80;;;;;;;9.52;71.88;92281.88;5066801;28;20389;-74
2024/02/10 05:17:41;;;;;;;10.32;5.97;;;;;;;9.53;71.78;92280.13;5070474;28;20062;-75
2024/02/10 05:20:13;;;;;;;9.23;5.00;;;;;;;9.52;71.48;92284.44;5069987;28;20071;-75
2024/02/10 05:22:43;;;;;;;10.02;5.15;;;;;;;9.55;71.65;92284.00;5068642;28;20040;-75
2024/02/10 05:25:12;;;;;;;9.23;4.60;;;;;;;9.63;71.68;92295.72;5071749;28;20049;-74
2024/02/10 05:27:40;;;;;;;15.40;5.78;;;;;;;9.74;70.98;92294.91;5069761;28;20048;-74
2024/02/10 05:30:20;;;;;;;14.60;6.20;;;;;;;9.61;71.00;92285.66;5068318;28;20055;-74
2024/02/10 05:32:49;;;;;;;11.68;6.30;;;;;;;9.75;71.47;92298.22;5071852;28;20512;-75
2024/02/10 05:35:18;;;;;;;10.50;5.65;;;;;;;9.83;71.15;92307.34;5070446;28;20123;-74
2024/02/10 05:37:47;;;;;;;15.23;9.07;;;;;;;9.83;70.99;92320.19;5068192;28;20045;-74
2024/02/10 05:40:14;;;;;;;14.52;7.53;;;;;;;9.83;71.24;92323.53;5070367;28;20855;-74
2024/02/10 05:42:44;;;;;;;23.25;12.07;;;;;;;9.78;71.02;92328.56;5075060;28;20591;-74
2024/02/10 05:45:14;;;;;;;17.25;9.15;;;;;;;9.76;71.20;92330.56;5070481;28;20052;-74
2024/02/10 05:47:41;;;;;;;12.98;5.88;;;;;;;9.58;70.88;92298.94;5072577;28;20140;-73
2024/02/10 05:50:12;;;;;;;13.40;6.20;;;;;;;9.70;71.11;92316.88;5069342;28;20507;-74
2024/02/10 05:52:41;;;;;;;10.23;5.78;;;;;;;9.68;71.22;92323.22;5069404;28;20048;-74
2024/02/10 05:55:09;;;;;;;15.73;8.10;;;;;;;9.65;71.36;92318.53;5082519;28;20552;-74
2024/02/10 05:57:36;;;;;;;17.00;7.45;;;;;;;9.64;70.94;92315.22;5072547;28;20139;-74
2024/02/10 06:00:09;;;;;;;12.70;6.30;;;;;;;9.54;70.82;92308.06;5070437;28;20047;-74
2024/02/10 06:02:39;;;;;;;12.48;6.82;;;;;;;9.68;70.93;92318.84;5068914;28;20139;-74
2024/02/10 06:05:10;;;;;;;27.20;14.00;;;;;;;9.72;70.65;92325.09;5077962;28;20044;-74
2024/02/10 06:07:38;;;;;;;18.48;9.73;;;;;;;9.65;70.32;92321.88;5073444;28;20044;-74
2024/02/10 06:10:09;;;;;;;21.88;10.43;;;;;;;9.72;70.41;92326.91;5073479;28;20052;-75
2024/02/10 06:12:39;;;;;;;10.13;5.97;;;;;;;9.79;70.17;92331.88;5072460;28;20416;-74
2024/02/10 06:15:09;;;;;;;13.63;5.18;;;;;;;9.71;69.68;92313.28;5068269;28;20051;-74
2024/02/10 06:17:38;;;;;;;25.60;11.02;;;;;;;9.78;70.05;92317.50;5073300;28;20051;-75
2024/02/10 06:20:06;;;;;;;9.48;5.45;;;;;;;9.76;69.79;92308.25;5068071;28;20135;-75
2024/02/10 06:22:35;;;;;;;32.38;15.13;;;;;;;10.06;69.88;92346.78;5072689;28;20776;-75
2024/02/10 06:25:02;;;;;;;20.75;9.05;;;;;;;10.05;70.03;92351.16;5069220;28;20832;-75
2024/02/10 06:27:34;;;;;;;13.82;7.55;;;;;;;10.13;69.84;92350.78;5071043;28;20996;-75
2024/02/10 06:30:01;;;;;;;21.13;9.52;;;;;;;10.21;70.00;92352.22;5075404;28;20040;-75
2024/02/10 06:32:28;;;;;;;45.92;19.63;;;;;;;10.23;70.29;92352.75;5067906;28;20041;-76
2024/02/10 06:34:55;;;;;;;82.28;35.55;;;;;;;10.36;69.62;92361.19;5067356;28;20044;-75
2024/02/10 06:37:25;;;;;;;27.55;14.05;;;;;;;10.45;69.89;92364.22;5071237;28;20059;-75
2024/02/10 06:39:53;;;;;;;25.98;13.80;;;;;;;10.54;70.01;92365.38;5066820;28;20049;-74
2024/02/10 06:42:20;;;;;;;20.52;11.00;;;;;;;10.50;70.09;92364.28;5067850;28;20514;-74
2024/02/10 06:44:47;;;;;;;27.20;13.02;;;;;;;10.57;70.23;92372.66;5075052;28;20045;-74
2024/02/10 06:47:14;;;;;;;23.25;10.85;;;;;;;10.68;70.42;92353.84;5068478;28;20485;-75
2024/02/10 06:49:41;;;;;;;15.88;9.02;;;;;;;10.68;69.83;92356.41;5069858;28;20059;-74
2024/02/10 06:52:08;;;;;;;16.20;8.80;;;;;;;10.75;69.83;92358.84;5073033;28;20139;-74
2024/02/10 06:54:37;;;;;;;22.23;10.70;;;;;;;10.74;69.16;92348.78;5076708;28;20049;-74
2024/02/10 06:57:08;;;;;;;17.98;9.00;;;;;;;10.90;68.75;92350.59;5074532;28;20833;-74
2024/02/10 06:59:38;;;;;;;38.28;18.27;;;;;;;11.00;67.98;92352.53;5073840;28;20496;-75
2024/02/10 07:02:06;;;;;;;16.63;9.57;;;;;;;10.98;67.50;92346.88;5070872;28;20126;-74
2024/02/10 07:04:37;;;;;;;11.35;6.88;;;;;;;11.12;67.47;92355.03;5072665;28;20080;-74
2024/02/10 07:07:04;;;;;;;8.48;5.28;;;;;;;11.18;66.85;92351.53;5072850;28;20052;-75
2024/02/10 07:09:35;;;;;;;10.07;5.10;;;;;;;11.35;66.72;92348.94;5072737;28;20048;-75
2024/02/10 07:12:02;;;;;;;11.73;7.35;;;;;;;11.49;66.89;92338.34;5071652;28;20132;-75
2024/02/10 07:14:33;;;;;;;10.57;5.55;;;;;;;11.65;66.05;92343.66;5072359;28;20049;-75
2024/02/10 07:17:04;;;;;;;8.15;4.38;;;;;;;11.71;65.36;92342.75;5076273;28;20055;-74
2024/02/10 07:19:35;;;;;;;10.68;4.78;;;;;;;11.83;63.45;92343.41;5071005;28;20522;-75
2024/02/10 07:22:02;;;;;;;10.48;6.53;;;;;;;11.73;63.83;92343.28;5079016;28;20081;-74
2024/02/10 07:24:29;;;;;;;7.70;4.75;;;;;;;11.81;62.87;92353.13;5073151;28;20152;-75
2024/02/10 07:26:56;;;;;;;7.00;5.03;;;;;;;11.79;62.84;92351.84;5072327;28;20159;-75
2024/02/10 07:29:24;;;;;;;12.15;5.13;;;;;;;11.97;62.75;92343.03;5078305;28;20051;-75
2024/02/10 07:31:54;;;;;;;9.90;5.45;;;;;;;11.92;62.92;92343.78;5069501;28;20532;-75
2024/02/10 07:34:22;;;;;;;8.07;4.03;;;;;;;12.05;62.78;92339.31;5072717;28;20828;-75
2024/02/10 07:36:51;;;;;;;7.20;3.97;;;;;;;12.14;63.57;92343.78;5074691;28;20090;-75
2024/02/10 07:39:24;;;;;;;8.23;4.45;;;;;;;12.16;63.23;92338.41;5077779;28;20054;-75
2024/02/10 07:41:51;;;;;;;8.80;4.70;;;;;;;12.23;62.47;92320.97;5071055;28;20053;-75
2024/02/10 07:44:18;;;;;;;10.18;4.25;;;;;;;12.36;63.08;92326.78;5069502;28;20048;-75
2024/02/10 07:46:45;;;;;;;9.00;4.32;;;;;;;12.25;62.63;92318.16;5077508;28;20049;-75
2024/02/10 07:49:13;;;;;;;7.93;4.53;;;;;;;12.33;61.84;92328.03;5073659;28;20048;-75
2024/02/10 07:51:46;;;;;;;7.25;4.25;;;;;;;12.36;62.50;92321.63;5074358;28;20938;-75
2024/02/10 07:54:13;;;;;;;9.20;4.95;;;;;;;12.38;61.59;92320.38;5075074;28;20566;-75
2024/02/10 07:56:41;;;;;;;9.95;4.22;;;;;;;12.48;61.57;92316.31;5079091;28;20553;-75
2024/02/10 07:59:08;;;;;;;9.07;4.30;;;;;;;12.64;60.84;92324.97;5072056;28;20044;-76
2024/02/10 08:01:35;;;;;;;10.20;3.90;;;;;;;12.60;61.38;92321.34;5074025;28;20044;-76
2024/02/10 08:04:04;;;;;;;8.60;4.75;;;;;;;12.61;61.78;92330.59;5071215;28;20055;-75
2024/02/10 08:06:33;;;;;;;9.10;5.13;;;;;;;12.69;62.25;92325.78;5071483;28;20041;-75
2024/02/10 08:09:02;;;;;;;12.57;5.65;;;;;;;12.51;61.82;92296.00;5075030;28;20578;-75
2024/02/10 08:11:29;;;;;;;12.45;5.40;;;;;;;12.88;62.08;92327.25;5072934;28;20041;-75
2024/02/10 08:13:57;;;;;;;11.63;5.55;;;;;;;12.85;62.44;92332.88;5073815;28;20139;-75
2024/02/10 08:16:27;;;;;;;8.13;3.97;;;;;;;12.69;62.18;92315.47;5070225;28;20129;-75
2024/02/10 08:18:54;;;;;;;13.52;4.90;;;;;;;12.85;61.54;92325.94;5072866;28;20136;-75
2024/02/10 08:21:22;;;;;;;8.65;4.40;;;;;;;12.74;62.17;92329.44;5072309;28;20124;-75
2024/02/10 08:23:52;;;;;;;9.95;4.38;;;;;;;13.08;61.93;92326.63;5072811;28;20806;-75
2024/02/10 08:26:19;;;;;;;10.50;4.55;;;;;;;13.13;61.00;92326.66;5081509;28;20126;-75
2024/02/10 08:28:47;;;;;;;16.08;5.80;;;;;;;13.32;60.99;92328.84;5075276;28;20050;-75
2024/02/10 08:31:18;;;;;;;9.23;4.60;;;;;;;13.37;60.77;92321.13;5079723;28;20054;-75
2024/02/10 08:33:48;;;;;;;11.35;3.95;;;;;;;13.22;59.79;92322.59;5070565;28;20040;-75
2024/02/10 08:36:16;;;;;;;7.97;3.33;;;;;;;13.21;59.96;92322.84;5072591;28;20049;-75
2024/02/10 08:38:43;;;;;;;11.55;4.53;;;;;;;13.64;58.71;92330.63;5073164;28;21692;-75
2024/02/10 08:41:11;;;;;;;9.75;4.45;;;;;;;13.66;56.87;92309.72;5071853;28;20055;-75
2024/02/10 08:43:47;;;;;;;9.60;4.13;;;;;;;13.75;55.08;92339.19;5072708;28;20051;-75
2024/02/10 08:46:14;;;;;;;7.13;3.85;;;;;;;13.87;55.10;92347.50;5076194;28;20044;-75
2024/02/10 08:48:42;;;;;;;12.50;3.97;;;;;;;13.87;54.15;92362.22;5072052;28;20059;-75
2024/02/10 08:51:11;;;;;;;9.05;3.50;;;;;;;13.93;53.20;92342.38;5070713;28;20176;-75
2024/02/10 08:53:39;;;;;;;6.35;3.33;;;;;;;13.92;52.42;92362.25;5071786;28;20048;-75
2024/02/10 08:56:08;;;;;;;5.47;2.42;;;;;;;14.02;51.37;92359.72;5069168;28;20151;-75
2024/02/10 08:58:38;;;;;;;7.85;2.97;;;;;;;14.19;51.10;92343.25;5069255;28;20094;-75
2024/02/10 09:01:06;;;;;;;9.60;2.95;;;;;;;14.31;50.66;92337.88;5081084;28;20041;-75
2024/02/10 09:03:33;;;;;;;8.15;3.03;;;;;;;14.40;50.59;92340.75;5070769;28;20048;-75
2024/02/10 09:06:00;;;;;;;7.70;3.20;;;;;;;14.37;50.10;92347.19;5070743;28;20530;-75
2024/02/10 09:08:27;;;;;;;16.73;4.47;;;;;;;14.48;50.19;92347.97;5078156;28;20047;-75
2024/02/10 09:10:54;;;;;;;11.40;3.67;;;;;;;14.51;50.62;92351.88;5074951;28;20048;-75
2024/02/10 09:13:21;;;;;;;6.93;3.90;;;;;;;14.65;50.59;92352.94;5069977;28;20152;-75
2024/02/10 09:15:49;;;;;;;7.63;3.38;;;;;;;14.65;49.61;92350.34;5074251;28;20443;-75
2024/02/10 09:18:16;;;;;;;9.40;3.15;;;;;;;14.65;48.70;92342.59;5073619;28;20062;-75
2024/02/10 09:20:43;;;;;;;8.77;3.42;;;;;;;14.77;48.59;92350.13;5069384;28;20123;-75
2024/02/10 09:23:10;;;;;;;11.73;3.88;;;;;;;14.90;48.78;92356.59;5068262;28;20040;-75
2024/02/10 09:25:38;;;;;;;13.52;3.70;;;;;;;15.15;48.64;92356.88;5070086;28;20048;-75
2024/02/10 09:28:06;;;;;;;6.80;2.75;;;;;;;14.95;47.32;92333.34;5071094;28;20041;-76
2024/02/10 09:30:35;;;;;;;7.35;3.00;;;;;;;15.19;46.38;92345.75;5074089;28;20894;-76
2024/02/10 09:33:07;;;;;;;9.40;2.75;;;;;;;15.27;45.40;92351.47;5068832;28;20648;-75
2024/02/10 09:35:39;;;;;;;10.95;2.78;;;;;;;15.48;45.97;92359.97;5071664;28;20052;-76
2024/02/10 09:38:13;;;;;;;6.47;2.78;;;;;;;15.49;45.72;92338.22;5069762;28;20508;-76
2024/02/10 09:40:40;;;;;;;6.60;2.70;;;;;;;15.66;44.79;92342.34;5074316;28;20055;-75
2024/02/10 09:43:10;;;;;;;5.47;2.42;;;;;;;15.65;44.53;92349.34;5071587;28;20055;-76
2024/02/10 09:45:41;;;;;;;8.75;3.00;;;;;;;15.72;45.14;92343.88;5069581;28;20051;-76
2024/02/10 09:48:15;;;;;;;15.15;4.40;;;;;;;15.81;44.52;92350.09;5071693;28;20048;-75
2024/02/10 09:50:42;;;;;;;8.18;2.60;;;;;;;15.74;44.81;92347.00;5072114;28;20075;-76
2024/02/10 09:53:09;;;;;;;6.68;2.45;;;;;;;15.61;43.04;92351.66;5067921;28;20047;-75
2024/02/10 09:55:36;;;;;;;9.32;2.33;;;;;;;15.45;43.65;92348.34;5076462;28;20049;-76
2024/02/10 09:58:06;;;;;;;7.03;2.03;;;;;;;15.53;43.55;92354.78;5068865;28;20135;-76
2024/02/10 10:00:37;;;;;;;7.78;2.33;;;;;;;15.59;43.35;92345.97;5069868;28;20055;-76
2024/02/10 10:03:05;;;;;;;7.10;2.70;;;;;;;15.70;43.67;92361.50;5073953;28;20048;-76
2024/02/10 10:05:42;;;;;;;5.68;2.00;;;;;;;15.66;43.19;92329.41;5070863;28;20119;-76
2024/02/10 10:08:10;;;;;;;8.48;2.85;;;;;;;15.48;43.79;92347.81;5071490;28;20094;-75
2024/02/10 10:10:37;;;;;;;8.25;2.72;;;;;;;15.42;44.50;92343.66;5067774;28;20048;-75
2024/02/10 10:13:07;;;;;;;9.25;3.75;;;;;;;15.54;44.41;92355.56;5068969;28;20591;-76
2024/02/10 10:15:36;;;;;;;9.20;2.60;;;;;;;15.38;44.48;92350.41;5069157;28;20127;-75
2024/02/10 10:18:03;;;;;;;48.80;5.22;;;;;;;15.19;44.38;92348.34;5068268;28;20132;-76
2024/02/10 10:20:34;;;;;;;7.38;2.75;;;;;;;15.11;44.57;92346.28;5069939;28;20040;-76
2024/02/10 10:23:02;;;;;;;6.72;2.90;;;;;;;14.94;45.28;92354.28;5068141;28;20121;-75
2024/02/10 10:25:30;;;;;;;9.95;2.33;;;;;;;14.94;45.07;92349.91;5075269;28;20080;-76
2024/02/10 10:27:57;;;;;;;18.40;3.53;;;;;;;15.07;45.83;92338.28;5073027;28;20044;-75
2024/02/10 10:30:26;;;;;;;10.40;2.63;;;;;;;15.30;45.66;92345.75;5078066;28;20044;-75
2024/02/10 10:32:57;;;;;;;7.28;2.67;;;;;;;15.23;45.30;92333.84;5076687;28;20131;-75
2024/02/10 10:35:26;;;;;;;8.23;2.63;;;;;;;15.23;45.56;92333.09;5074123;28;20045;-75
2024/02/10 10:37:55;;;;;;;7.78;2.65;;;;;;;15.45;45.34;92334.59;5072762;28;20044;-75
2024/02/10 10:40:23;;;;;;;7.68;2.80;;;;;;;15.55;44.58;92320.88;5075984;28;20045;-75
2024/02/10 10:42:52;;;;;;;7.78;2.92;;;;;;;15.65;44.93;92318.28;5077982;28;20044;-75
2024/02/10 10:45:20;;;;;;;6.40;2.22;;;;;;;15.66;44.21;92319.84;5079097;28;20040;-75
2024/02/10 10:47:48;;;;;;;6.22;2.58;;;;;;;15.73;43.59;92320.31;5078881;28;20045;-75
2024/02/10 10:50:15;;;;;;;12.40;2.60;;;;;;;15.71;44.12;92319.03;5071290;28;20044;-75
2024/02/10 10:52:46;;;;;;;6.50;2.72;;;;;;;15.69;43.53;92319.28;5073823;28;20051;-75
2024/02/10 10:55:17;;;;;;;11.07;2.50;;;;;;;15.52;43.35;92319.59;5071095;28;20051;-75
2024/02/10 10:57:50;;;;;;;6.13;2.55;;;;;;;15.42;43.31;92315.19;5076310;28;20061;-75
2024/02/10 11:00:21;;;;;;;5.32;2.25;;;;;;;15.20;43.71;92293.00;5073691;28;20102;-75
2024/02/10 11:02:52;;;;;;;7.25;2.10;;;;;;;15.32;44.01;92313.41;5075311;28;21094;-75
2024/02/10 11:05:23;;;;;;;8.85;2.72;;;;;;;15.47;43.85;92304.84;5070927;28;20127;-75
2024/02/10 11:08:00;;;;;;;10.48;2.55;;;;;;;15.38;43.68;92306.44;5074558;28;20044;-75
2024/02/10 11:10:37;;;;;;;4.82;2.38;;;;;;;15.54;43.83;92306.38;5075450;28;20057;-76
2024/02/10 11:13:05;;;;;;;7.32;2.95;;;;;;;15.45;43.51;92282.84;5072435;28;20154;-75
2024/02/10 11:15:32;;;;;;;7.35;2.80;;;;;;;15.56;43.53;92307.66;5072852;28;20501;-75
2024/02/10 11:18:01;;;;;;;18.45;3.20;;;;;;;15.60;43.06;92307.94;5072008;28;20762;-75
2024/02/10 11:20:38;;;;;;;4.18;1.95;;;;;;;15.47;42.77;92298.91;5073549;28;20055;-75
2024/02/10 11:23:14;;;;;;;8.63;2.63;;;;;;;15.46;43.02;92294.78;5079956;28;20044;-75
2024/02/10 11:25:43;;;;;;;7.68;3.40;;;;;;;15.57;43.28;92295.50;5074971;28;20046;-75
2024/02/10 11:28:21;;;;;;;10.57;3.20;;;;;;;15.63;43.67;92303.00;5075357;28;20045;-75
2024/02/10 11:30:48;;;;;;;8.82;4.60;;;;;;;15.50;43.37;92282.84;5073267;28;20047;-75
2024/02/10 11:33:22;;;;;;;13.43;4.97;;;;;;;15.43;43.52;92292.69;5080805;28;20048;-75
2024/02/10 11:35:50;;;;;;;8.02;2.67;;;;;;;15.22;44.00;92293.50;5074318;28;20044;-75
2024/02/10 11:38:18;;;;;;;14.20;6.80;;;;;;;15.28;44.29;92309.03;5075176;28;20057;-75